Time;durP1;ratioP1;P1;durP2;ratioP2;P2;SDS_P1;SDS_P2;PMS_P1;PMS_P2;Temp;Humidity;BMP_temperature;BMP_pressure;BME280_temperature;BME280_humidity;BME280_pressure;Samples;Min_cycle;Max_cycle;Signal;HPM_P1;HPM_P2
2024/01/30 00:00:50;;;;;;;;;;;;;;;6.73;100.00;102215.50;5109190;28;20642;-77
2024/01/30 00:03:15;;;;;;;;;;;;;;;6.75;100.00;102216.22;5110996;28;20224;-78
2024/01/30 00:05:41;;;;;;;;;;;;;;;6.74;100.00;102214.50;5110374;28;19973;-78
2024/01/30 00:08:06;;;;;;;;;;;;;;;6.76;100.00;102217.06;5111875;28;19919;-77
2024/01/30 00:10:31;;;;;;;;;;;;;;;6.72;100.00;102204.94;5107943;28;19946;-78
2024/01/30 00:12:56;;;;;;;;;;;;;;;6.67;100.00;102194.66;5116136;27;19924;-78
2024/01/30 00:15:22;;;;;;;;;;;;;;;6.66;100.00;102201.00;5110801;28;19939;-78
2024/01/30 00:17:47;;;;;;;;;;;;;;;6.68;100.00;102197.19;5111100;28;19924;-77
2024/01/30 00:20:12;;;;;;;;;;;;;;;6.64;100.00;102190.41;5108180;28;19920;-78
2024/01/30 00:22:37;;;;;;;;;;;;;;;6.61;100.00;102198.75;5111565;28;19934;-78
2024/01/30 00:25:03;;;;;;;;;;;;;;;6.53;100.00;102194.03;5128227;22;19939;-78
2024/01/30 00:27:28;;;;;;;;;;;;;;;6.54;100.00;102189.56;5110484;28;20338;-77
2024/01/30 00:29:53;;;;;;;;;;;;;;;6.51;100.00;102189.81;5112306;28;19920;-77
2024/01/30 00:32:19;;;;;;;;;;;;;;;6.52;100.00;102192.38;5111294;28;19923;-78
2024/01/30 00:34:44;;;;;;;;;;;;;;;6.43;100.00;102195.84;5110084;28;19927;-77
2024/01/30 00:37:09;;;;;;;;;;;;;;;6.45;100.00;102193.03;5125120;22;19927;-77
2024/01/30 00:39:34;;;;;;;;;;;;;;;6.47;100.00;102191.94;5111318;28;19946;-77
2024/01/30 00:42:00;;;;;;;;;;;;;;;6.44;100.00;102199.41;5111243;28;19959;-78
2024/01/30 00:44:25;;;;;;;;;;;;;;;6.36;100.00;102200.03;5123764;28;19919;-77
2024/01/30 00:46:50;;;;;;;;;;;;;;;6.37;100.00;102196.38;5123468;28;19923;-78
2024/01/30 00:49:15;;;;;;;;;;;;;;;6.43;100.00;102193.19;5166925;22;19950;-77
2024/01/30 00:51:41;;;;;;;;;;;;;;;6.44;100.00;102199.41;5103637;28;19959;-78
2024/01/30 00:54:06;;;;;;;;;;;;;;;6.41;100.00;102203.16;5100748;28;19921;-78
2024/01/30 00:56:31;;;;;;;;;;;;;;;6.40;100.00;102200.66;5101459;28;20360;-77
2024/01/30 00:58:56;;;;;;;;;;;;;;;6.40;100.00;102195.28;5101405;28;20370;-78
2024/01/30 01:01:22;;;;;;;;;;;;;;;6.38;100.00;102195.41;5098175;28;19926;-78
2024/01/30 01:03:48;;;;;;;;;;;;;;;6.37;100.00;102197.25;5102016;28;19920;-78
2024/01/30 01:06:13;;;;;;;;;;;;;;;6.32;100.00;102190.63;5098771;28;19927;-78
2024/01/30 01:08:41;;;;;;;;;;;;;;;6.37;100.00;102191.91;5097888;28;20284;-77
2024/01/30 01:11:06;;;;;;;;;;;;;;;6.36;100.00;102192.88;5098784;28;19915;-78
2024/01/30 01:13:31;;;;;;;;;;;;;;;6.32;100.00;102194.13;5105672;28;19928;-78
2024/01/30 01:15:57;;;;;;;;;;;;;;;6.35;100.00;102193.88;5108336;28;19945;-78
2024/01/30 01:18:22;;;;;;;;;;;;;;;6.34;100.00;102194.84;5099524;28;19920;-77
2024/01/30 01:20:47;;;;;;;;;;;;;;;6.26;100.00;102193.84;5102107;28;20042;-78
2024/01/30 01:23:12;;;;;;;;;;;;;;;6.18;100.00;102190.00;5098926;28;19973;-78
2024/01/30 01:25:37;;;;;;;;;;;;;;;6.18;100.00;102190.00;5099654;28;19920;-77
2024/01/30 01:28:06;;;;;;;;;;;;;;;6.22;100.00;102186.06;5105525;28;19927;-78
2024/01/30 01:30:31;;;;;;;;;;;;;;;6.18;100.00;102181.97;5099834;28;19916;-78
2024/01/30 01:32:59;;;;;;;;;;;;;;;6.14;100.00;102185.91;5105538;28;19928;-78
2024/01/30 01:35:25;;;;;;;;;;;;;;;6.08;100.00;102175.75;5111315;28;20598;-77
2024/01/30 01:37:57;;;;;;;;;;;;;;;6.02;100.00;102186.97;5104998;28;19941;-77
2024/01/30 01:40:25;;;;;;;;;;;;;;;6.09;100.00;102181.97;5100125;28;20261;-77
2024/01/30 01:42:51;;;;;;;;;;;;;;;6.09;100.00;102182.78;5097780;28;19920;-78
2024/01/30 01:45:17;;;;;;;;;;;;;;;6.02;100.00;102178.94;5105489;28;20010;-76
2024/01/30 01:47:42;;;;;;;;;;;;;;;6.00;100.00;102183.59;5106712;28;20038;-77
2024/01/30 01:50:07;;;;;;;;;;;;;;;6.04;100.00;102179.66;5107605;28;20350;-75
2024/01/30 01:52:33;;;;;;;;;;;;;;;6.03;100.00;102176.16;5093351;28;19920;-76
2024/01/30 01:54:58;;;;;;;;;;;;;;;6.02;100.00;102174.47;5102734;28;19920;-75
2024/01/30 01:57:23;;;;;;;;;;;;;;;6.00;100.00;102173.75;5104081;28;19920;-76
2024/01/30 01:59:48;;;;;;;;;;;;;;;6.06;100.00;102169.69;5096020;28;20011;-78
2024/01/30 02:02:15;;;;;;;;;;;;;;;6.07;100.00;102174.06;5108340;28;19959;-78
2024/01/30 02:04:41;;;;;;;;;;;;;;;6.06;100.00;102172.34;5091341;28;19924;-78
2024/01/30 02:07:06;;;;;;;;;;;;;;;6.08;100.00;102165.06;5096271;28;19920;-75
2024/01/30 02:09:31;;;;;;;;;;;;;;;6.05;100.00;102165.31;5096609;28;19989;-77
2024/01/30 02:11:57;;;;;;;;;;;;;;;6.01;100.00;102155.88;5102732;28;19923;-76
2024/01/30 02:14:22;;;;;;;;;;;;;;;6.05;100.00;102154.63;5103880;28;19927;-78
2024/01/30 02:16:47;;;;;;;;;;;;;;;6.06;100.00;102149.16;5106759;28;19978;-78
2024/01/30 02:19:12;;;;;;;;;;;;;;;6.09;100.00;102152.56;5102123;28;19923;-75
2024/01/30 02:21:38;;;;;;;;;;;;;;;6.11;100.00;102150.56;5101091;28;19923;-78
2024/01/30 02:24:03;;;;;;;;;;;;;;;6.10;100.00;102148.88;5098869;28;19924;-76
2024/01/30 02:26:28;;;;;;;;;;;;;;;6.09;100.00;102148.03;5086862;28;19942;-78
2024/01/30 02:28:53;;;;;;;;;;;;;;;6.11;100.00;102138.06;5106221;28;19920;-78
2024/01/30 02:31:19;;;;;;;;;;;;;;;6.07;100.00;102132.13;5104668;28;20011;-78
2024/01/30 02:33:44;;;;;;;;;;;;;;;6.12;100.00;102126.38;5094674;28;19928;-77
2024/01/30 02:36:09;;;;;;;;;;;;;;;6.19;100.00;102135.53;5099114;28;19980;-77
2024/01/30 02:38:34;;;;;;;;;;;;;;;6.15;100.00;102139.47;5097642;28;20032;-78
2024/01/30 02:41:00;;;;;;;;;;;;;;;6.16;100.00;102138.50;5104037;28;19927;-78
2024/01/30 02:43:25;;;;;;;;;;;;;;;6.19;100.00;102135.53;5099571;28;19934;-78
2024/01/30 02:45:50;;;;;;;;;;;;;;;6.20;100.00;102131.88;5102602;28;19966;-76
2024/01/30 02:48:16;;;;;;;;;;;;;;;6.25;100.00;102133.31;5098443;28;20046;-78
2024/01/30 02:50:50;;;;;;;;;;;;;;;6.26;100.00;102124.31;5095888;28;19958;-77
2024/01/30 02:53:15;;;;;;;;;;;;;;;6.32;100.00;102129.13;5102512;28;19938;-77
2024/01/30 02:55:40;;;;;;;;;;;;;;;6.37;100.00;102130.38;5094105;28;19928;-76
2024/01/30 02:58:05;;;;;;;;;;;;;;;6.36;100.00;102128.69;5104507;28;19927;-76
2024/01/30 03:00:32;;;;;;;;;;;;;;;6.33;100.00;102126.28;5101218;28;19928;-76
2024/01/30 03:02:57;;;;;;;;;;;;;;;6.31;100.00;102119.41;5102433;28;19972;-75
2024/01/30 03:05:22;;;;;;;;;;;;;;;6.31;100.00;102127.41;5111705;28;19920;-75
2024/01/30 03:07:47;;;;;;;;;;;;;;;6.32;100.00;102123.75;5097402;28;19920;-75
2024/01/30 03:10:12;;;;;;;;;;;;;;;6.27;100.00;102120.66;5103543;28;19927;-76
2024/01/30 03:12:38;;;;;;;;;;;;;;;6.20;100.00;102113.16;5105231;28;20010;-76
2024/01/30 03:15:03;;;;;;;;;;;;;;;6.22;100.00;102115.72;5102379;28;19970;-77
2024/01/30 03:17:28;;;;;;;;;;;;;;;6.11;100.00;102116.66;5103263;28;19964;-77
2024/01/30 03:19:53;;;;;;;;;;;;;;;6.18;100.00;102115.13;5111957;28;20286;-75
2024/01/30 03:22:19;;;;;;;;;;;;;;;6.13;100.00;102101.34;5101961;28;19923;-77
2024/01/30 03:24:44;;;;;;;;;;;;;;;6.10;100.00;102104.28;5108669;28;20462;-77
2024/01/30 03:27:09;;;;;;;;;;;;;;;6.07;100.00;102099.19;5103729;28;20280;-78
2024/01/30 03:29:34;;;;;;;;;;;;;;;6.03;100.00;102103.13;5111417;28;19946;-75
2024/01/30 03:32:00;;;;;;;;;;;;;;;5.98;100.00;102100.00;5104712;28;20366;-77
2024/01/30 03:34:28;;;;;;;;;;;;;;;5.99;100.00;102091.00;5097515;28;19947;-77
2024/01/30 03:36:53;;;;;;;;;;;;;;;6.03;100.00;102085.25;5096687;28;19920;-77
2024/01/30 03:39:18;;;;;;;;;;;;;;;6.00;100.00;102095.41;5095775;28;19981;-78
2024/01/30 03:41:44;;;;;;;;;;;;;;;6.03;100.00;102092.44;5103207;28;19920;-77
2024/01/30 03:44:09;;;;;;;;;;;;;;;6.01;100.00;102094.38;5101304;28;19965;-77
2024/01/30 03:46:34;;;;;;;;;;;;;;;6.03;100.00;102092.44;5095398;28;20379;-77
2024/01/30 03:48:59;;;;;;;;;;;;;;;6.03;100.00;102089.75;5100030;28;19931;-77
2024/01/30 03:51:27;;;;;;;;;;;;;;;6.00;100.00;102092.72;5108863;28;19924;-77
2024/01/30 03:53:53;;;;;;;;;;;;;;;6.00;100.00;102090.06;5100018;28;19920;-78
2024/01/30 03:56:18;;;;;;;;;;;;;;;6.03;100.00;102087.06;5107781;28;19919;-77
2024/01/30 03:58:43;;;;;;;;;;;;;;;6.05;100.00;102090.47;5112284;28;19965;-78
2024/01/30 04:01:12;;;;;;;;;;;;;;;6.06;100.00;102092.16;5111326;28;19961;-77
2024/01/30 04:03:38;;;;;;;;;;;;;;;6.13;100.00;102087.09;5104524;28;20014;-77
2024/01/30 04:06:03;;;;;;;;;;;;;;;6.20;100.00;102089.09;5085492;28;20371;-78
2024/01/30 04:08:28;;;;;;;;;;;;;;;6.22;100.00;102081.78;5100243;28;20232;-78
2024/01/30 04:10:54;;;;;;;;;;;;;;;6.27;100.00;102086.72;5102427;28;20276;-78
2024/01/30 04:13:20;;;;;;;;;;;;;;;6.31;100.00;102084.63;5103754;28;19920;-78
2024/01/30 04:15:45;;;;;;;;;;;;;;;6.32;100.00;102075.63;5102943;28;19924;-78
2024/01/30 04:18:10;;;;;;;;;;;;;;;6.36;100.00;102082.34;5091418;28;20303;-78
2024/01/30 04:20:35;;;;;;;;;;;;;;;6.41;100.00;102074.78;5107475;28;20303;-78
2024/01/30 04:23:00;;;;;;;;;;;;;;;6.35;100.00;102065.47;5106252;28;20283;-77
2024/01/30 04:25:26;;;;;;;;;;;;;;;6.32;100.00;102070.28;5100736;28;19980;-78
2024/01/30 04:27:51;;;;;;;;;;;;;;;6.34;100.00;102070.97;5104195;28;19920;-77
2024/01/30 04:30:16;;;;;;;;;;;;;;;6.30;100.00;102061.53;5102050;28;19992;-77
2024/01/30 04:32:41;;;;;;;;;;;;;;;6.33;100.00;102067.44;5094669;28;19928;-77
2024/01/30 04:35:06;;;;;;;;;;;;;;;6.30;100.00;102062.38;5102591;28;19962;-77
2024/01/30 04:37:32;;;;;;;;;;;;;;;6.24;100.00;102051.38;5112018;28;19920;-77
2024/01/30 04:39:57;;;;;;;;;;;;;;;6.30;100.00;102053.53;5110466;28;20421;-77
2024/01/30 04:42:22;;;;;;;;;;;;;;;6.33;100.00;102056.75;5123898;28;19919;-77
2024/01/30 04:44:47;;;;;;;;;;;;;;;6.35;100.00;102048.59;5120708;28;19953;-77
2024/01/30 04:47:15;;;;;;;;;;;;;;;6.37;100.00;102057.31;5109464;28;20014;-78
2024/01/30 04:49:41;;;;;;;;;;;;;;;6.39;100.00;102043.81;5102979;28;19920;-78
2024/01/30 04:52:06;;;;;;;;;;;;;;;6.35;100.00;102052.13;5101049;28;20014;-78
2024/01/30 04:54:31;;;;;;;;;;;;;;;6.43;100.00;102055.94;5107000;28;20069;-78
2024/01/30 04:56:57;;;;;;;;;;;;;;;6.47;100.00;102065.34;5095946;28;20399;-77
2024/01/30 04:59:22;;;;;;;;;;;;;;;6.55;100.00;102064.63;5104502;28;19920;-77
2024/01/30 05:01:47;;;;;;;;;;;;;;;6.56;100.00;102077.03;5106437;28;19920;-77
2024/01/30 05:04:12;;;;;;;;;;;;;;;6.54;100.00;102074.50;5115710;28;20025;-80
2024/01/30 05:06:38;;;;;;;;;;;;;;;6.53;100.00;102073.66;5107540;28;19919;-82
2024/01/30 05:09:04;;;;;;;;;;;;;;;6.52;100.00;102074.66;5107943;28;19919;-76
2024/01/30 05:11:29;;;;;;;;;;;;;;;6.55;100.00;102070.84;5105919;28;19927;-78
2024/01/30 05:13:54;;;;;;;;;;;;;;;6.56;100.00;102077.03;5104451;28;19924;-78
2024/01/30 05:16:20;;;;;;;;;;;;;;;6.51;100.00;102064.94;5102673;28;20442;-75
2024/01/30 05:18:45;;;;;;;;;;;;;;;6.46;100.00;102072.53;5101577;28;20305;-76
2024/01/30 05:21:10;;;;;;;;;;;;;;;6.43;100.00;102067.47;5114902;28;20330;-78
2024/01/30 05:23:35;;;;;;;;;;;;;;;6.43;100.00;102059.44;5107196;28;20276;-74
2024/01/30 05:26:01;;;;;;;;;;;;;;;6.39;100.00;102055.34;5103394;28;20284;-75
2024/01/30 05:28:26;;;;;;;;;;;;;;;6.37;100.00;102063.50;5095780;28;19920;-78
2024/01/30 05:30:51;;;;;;;;;;;;;;;6.35;100.00;102064.66;5102248;28;19920;-75
2024/01/30 05:33:16;;;;;;;;;;;;;;;6.34;100.00;102068.31;5094537;28;20495;-75
2024/01/30 05:35:42;;;;;;;;;;;;;;;6.33;100.00;102072.78;5110222;28;20014;-78
2024/01/30 05:38:07;;;;;;;;;;;;;;;6.36;100.00;102064.50;5103962;28;19923;-77
2024/01/30 05:40:32;;;;;;;;;;;;;;;6.34;100.00;102065.63;5100005;28;19931;-75
2024/01/30 05:43:02;;;;;;;;;;;;;;;6.28;100.00;102064.34;5095861;28;19967;-78
2024/01/30 05:45:27;;;;;;;;;;;;;;;6.25;100.00;102053.94;5098744;28;20375;-76
2024/01/30 05:47:53;;;;;;;;;;;;;;;6.24;100.00;102057.59;5105750;28;19926;-77
2024/01/30 05:50:18;;;;;;;;;;;;;;;6.27;100.00;102057.28;5106551;28;19928;-78
2024/01/30 05:52:43;;;;;;;;;;;;;;;6.20;100.00;102059.69;5107388;28;19928;-78
2024/01/30 05:55:09;;;;;;;;;;;;;;;6.24;100.00;102054.06;5103008;28;19927;-78
2024/01/30 05:57:35;;;;;;;;;;;;;;;6.30;100.00;102058.88;5106284;28;20014;-78
2024/01/30 06:00:00;;;;;;;;;;;;;;;6.16;100.00;102057.44;5113377;28;20371;-77
2024/01/30 06:02:25;;;;;;;;;;;;;;;6.11;100.00;102063.19;5087114;28;20307;-78
2024/01/30 06:04:50;;;;;;;;;;;;;;;6.09;100.00;102067.00;5106546;28;19942;-78
2024/01/30 06:07:19;;;;;;;;;;;;;;;6.13;100.00;102057.69;5105643;28;20002;-75
2024/01/30 06:09:45;;;;;;;;;;;;;;;6.16;100.00;102060.97;5107195;28;19920;-75
2024/01/30 06:12:12;;;;;;;;;;;;;;;6.18;100.00;102058.97;5097370;28;19920;-76
2024/01/30 06:14:37;;;;;;;;;;;;;;;6.21;100.00;102057.88;5109941;28;19924;-75
2024/01/30 06:17:02;;;;;;;;;;;;;;;6.25;100.00;102059.28;5101599;28;19944;-76
2024/01/30 06:19:28;;;;;;;;;;;;;;;6.29;100.00;102070.53;5105067;28;19931;-75
2024/01/30 06:21:53;;;;;;;;;;;;;;;6.32;100.00;102065.75;5106106;28;19972;-78
2024/01/30 06:24:18;;;;;;;;;;;;;;;6.43;100.00;102066.63;5104816;28;19920;-78
2024/01/30 06:26:44;;;;;;;;;;;;;;;6.49;100.00;102058.88;5113066;28;19927;-77
2024/01/30 06:29:09;;;;;;;;;;;;;;;6.48;100.00;102059.88;5105905;28;19920;-77
2024/01/30 06:31:39;;;;;;;;;;;;;;;6.56;100.00;102066.34;5106319;28;19924;-75
2024/01/30 06:34:04;;;;;;;;;;;;;;;6.56;100.00;102055.63;5100287;28;19926;-78
2024/01/30 06:36:30;;;;;;;;;;;;;;;6.49;100.00;102058.88;5104567;28;19919;-78
2024/01/30 06:38:55;;;;;;;;;;;;;;;6.57;100.00;102057.31;5099125;28;20011;-77
2024/01/30 06:41:20;;;;;;;;;;;;;;;6.53;100.00;102051.41;5110068;28;19955;-77
2024/01/30 06:43:46;;;;;;;;;;;;;;;6.52;100.00;102049.72;5113475;28;20433;-77
2024/01/30 06:46:11;;;;;;;;;;;;;;;6.56;100.00;102055.63;5104284;28;19924;-77
2024/01/30 06:48:37;;;;;;;;;;;;;;;6.55;100.00;102049.44;5103462;28;20413;-77
2024/01/30 06:51:02;;;;;;;;;;;;;;;6.54;100.00;102058.47;5107348;28;20011;-77
2024/01/30 06:53:27;;;;;;;;;;;;;;;6.55;100.00;102064.63;5109322;28;19920;-77
2024/01/30 06:55:53;;;;;;;;;;;;;;;6.48;100.00;102064.34;5105601;28;20024;-77
2024/01/30 06:58:18;;;;;;;;;;;;;;;6.52;100.00;102055.94;5105042;28;19945;-77
2024/01/30 07:00:43;;;;;;;;;;;;;;;6.53;100.00;102062.94;5097459;28;19920;-77
2024/01/30 07:03:08;;;;;;;;;;;;;;;6.53;100.00;102068.28;5103967;28;19924;-77
2024/01/30 07:05:34;;;;;;;;;;;;;;;6.56;100.00;102069.00;5096635;28;19927;-77
2024/01/30 07:07:59;;;;;;;;;;;;;;;6.57;100.00;102066.22;5104773;28;20390;-77
2024/01/30 07:10:24;;;;;;;;;;;;;;;6.58;100.00;102075.06;5100687;28;19989;-77
2024/01/30 07:12:49;;;;;;;;;;;;;;;6.58;100.00;102075.94;5113392;28;19976;-77
2024/01/30 07:15:18;;;;;;;;;;;;;;;6.58;100.00;102075.06;5111962;28;19924;-77
2024/01/30 07:17:43;;;;;;;;;;;;;;;6.59;100.00;102076.75;5110669;28;19951;-77
2024/01/30 07:20:09;;;;;;;;;;;;;;;6.56;100.00;102082.38;5100807;28;20020;-77
2024/01/30 07:22:37;;;;;;;;;;;;;;;6.53;100.00;102076.31;5103316;28;19928;-77
2024/01/30 07:25:02;;;;;;;;;;;;;;;6.51;100.00;102081.00;5100113;28;20284;-77
2024/01/30 07:27:27;;;;;;;;;;;;;;;6.49;100.00;102085.63;5112861;28;19945;-77
2024/01/30 07:29:53;;;;;;;;;;;;;;;6.48;100.00;102077.72;5094784;28;20394;-76
2024/01/30 07:32:18;;;;;;;;;;;;;;;6.45;100.00;102083.34;5097971;28;20359;-76
2024/01/30 07:34:43;;;;;;;;;;;;;;;6.45;100.00;102086.91;5109248;28;19973;-77
2024/01/30 07:37:09;;;;;;;;;;;;;;;6.43;100.00;102088.84;5096245;28;19973;-77
2024/01/30 07:39:35;;;;;;;;;;;;;;;6.47;100.00;102084.94;5103532;28;19923;-77
2024/01/30 07:42:00;;;;;;;;;;;;;;;6.48;100.00;102093.78;5101515;28;19927;-77
2024/01/30 07:44:25;;;;;;;;;;;;;;;6.51;100.00;102088.16;5106146;28;19927;-77
2024/01/30 07:46:50;;;;;;;;;;;;;;;6.54;100.00;102090.56;5103213;28;20068;-77
2024/01/30 07:49:16;;;;;;;;;;;;;;;6.58;100.00;102096.47;5099574;28;20010;-77
2024/01/30 07:51:41;;;;;;;;;;;;;;;6.62;100.00;102097.88;5105886;28;19919;-77
2024/01/30 07:54:14;;;;;;;;;;;;;;;6.67;100.00;102101.00;5103028;28;19926;-77
2024/01/30 07:56:39;;;;;;;;;;;;;;;6.68;100.00;102100.84;5097115;28;19928;-77
2024/01/30 07:59:04;;;;;;;;;;;;;;;6.71;100.00;102102.38;5093781;28;19928;-76
2024/01/30 08:01:32;;;;;;;;;;;;;;;6.74;100.00;102091.41;5102795;28;19934;-76
2024/01/30 08:03:57;;;;;;;;;;;;;;;6.81;100.00;102103.25;5102508;28;20215;-76
2024/01/30 08:06:23;;;;;;;;;;;;;;;6.85;100.00;102097.63;5094654;28;19924;-76
2024/01/30 08:08:48;;;;;;;;;;;;;;;6.91;100.00;102097.03;5091995;28;19930;-78
2024/01/30 08:11:13;;;;;;;;;;;;;;;6.93;100.00;102112.00;5102089;28;19948;-77
2024/01/30 08:13:38;;;;;;;;;;;;;;;6.93;100.00;102111.13;5099311;28;20031;-78
2024/01/30 08:16:07;;;;;;;;;;;;;;;7.02;100.00;102112.09;5107303;28;19923;-78
2024/01/30 08:18:32;;;;;;;;;;;;;;;7.05;100.00;102109.16;5100240;28;19927;-78
2024/01/30 08:20:57;;;;;;;;;;;;;;;7.08;100.00;102111.53;5103113;28;19920;-78
2024/01/30 08:23:25;;;;;;;;;;;;;;;7.11;100.00;102120.13;5095936;28;19971;-77
2024/01/30 08:25:50;;;;;;;;;;;;;;;7.15;100.00;102109.13;5103211;28;19926;-77
2024/01/30 08:28:15;;;;;;;;;;;;;;;7.18;100.00;102120.41;5103239;28;19924;-78
2024/01/30 08:30:40;;;;;;;;;;;;;;;7.22;100.00;102121.81;5103108;28;19927;-77
2024/01/30 08:33:06;;;;;;;;;;;;;;;7.27;100.00;102121.38;5094626;28;19973;-77
2024/01/30 08:35:33;;;;;;;;;;;;;;;7.28;100.00;102118.56;5100107;28;19919;-78
2024/01/30 08:38:18;;;;;;;;;;;;;;;7.30;100.00;102115.75;5110571;28;20017;-77
2024/01/30 08:40:44;;;;;;;;;;;;;;;7.34;100.00;102125.19;5103179;28;19920;-78
2024/01/30 08:43:10;;;;;;;;;;;;;;;7.36;100.00;102123.22;5103425;28;19965;-78
2024/01/30 08:45:35;;;;;;;;;;;;;;;7.37;100.00;102127.56;5103027;28;20150;-77
2024/01/30 08:48:00;;;;;;;;;;;;;;;7.38;100.00;102129.28;5102337;28;20007;-78
2024/01/30 08:50:25;;;;;;;;;;;;;;;7.41;100.00;102125.44;5099324;28;19927;-78
2024/01/30 08:52:51;;;;;;;;;;;;;;;7.42;100.00;102133.31;5105798;28;19934;-77
2024/01/30 08:55:16;;;;;;;;;;;;;;;7.38;100.00;102142.66;5102248;28;19920;-77
2024/01/30 08:57:41;;;;;;;;;;;;;;;7.40;100.00;102140.69;5106438;28;19993;-77
2024/01/30 09:00:09;;;;;;;;;;;;;;;7.47;100.00;102140.94;5107519;28;19923;-77
2024/01/30 09:02:34;;;;;;;;;;;;;;;7.53;100.00;102139.53;5090845;28;20330;-77
2024/01/30 09:04:59;;;;;;;;;;;;;;;7.57;100.00;102131.03;5099041;28;19919;-76
2024/01/30 09:07:24;;;;;;;;;;;;;;;7.66;100.00;102134.69;5102665;28;19931;-77
2024/01/30 09:09:50;;;;;;;;;;;;;;;7.73;100.00;102129.59;5096810;28;19943;-77
2024/01/30 09:12:15;;;;;;;;;;;;;;;7.79;100.00;102136.19;5109288;28;19928;-77
2024/01/30 09:14:43;;;;;;;;;;;;;;;7.85;100.00;102138.28;5102357;28;20010;-77
2024/01/30 09:17:08;;;;;;;;;;;;;;;7.91;100.00;102148.44;5110465;28;19920;-77
2024/01/30 09:19:33;;;;;;;;;;;;;;;7.94;100.00;102148.16;5099607;28;19926;-77
2024/01/30 09:21:59;;;;;;;;;;;;;;;8.04;100.00;102140.03;5105301;28;19919;-76
2024/01/30 09:24:25;;;;;;;;;;;;;;;8.11;100.00;102143.00;5097964;28;19955;-77
2024/01/30 09:26:50;;;;;;;;;;;;;;;8.22;100.00;102142.78;5100946;28;20448;-77
2024/01/30 09:29:15;;;;;;;;;;;;;;;8.29;100.00;102135.84;5101298;28;20363;-77
2024/01/30 09:31:43;;;;;;;;;;;;;;;8.37;100.00;102134.22;5110796;28;20368;-77
2024/01/30 09:34:08;;;;;;;;;;;;;;;8.43;100.00;102149.72;5106380;28;19927;-77
2024/01/30 09:36:33;;;;;;;;;;;;;;;8.45;100.00;102135.16;5096292;28;19928;-77
2024/01/30 09:38:58;;;;;;;;;;;;;;;8.45;100.00;102137.00;5102908;28;19926;-77
2024/01/30 09:41:23;;;;;;;;;;;;;;;8.52;100.00;102140.78;5112780;28;19979;-77
2024/01/30 09:43:49;;;;;;;;;;;;;;;8.61;100.00;102134.53;5107010;28;20425;-77
2024/01/30 09:46:14;;;;;;;;;;;;;;;8.74;99.21;102139.50;5086245;28;19927;-77
2024/01/30 09:48:40;;;;;;;;;;;;;;;8.88;99.28;102148.03;5107058;28;19940;-77
2024/01/30 09:51:06;;;;;;;;;;;;;;;8.97;98.48;102152.47;5087676;28;19924;-77
2024/01/30 09:53:31;;;;;;;;;;;;;;;8.88;99.04;102151.56;5112105;28;19965;-77
2024/01/30 09:55:56;;;;;;;;;;;;;;;8.89;98.92;102149.72;5110431;28;19920;-77
2024/01/30 09:58:22;;;;;;;;;;;;;;;9.04;98.03;102148.19;5102066;28;20017;-78
2024/01/30 10:00:47;;;;;;;;;;;;;;;9.02;98.58;102163.59;5087093;28;19920;-77
2024/01/30 10:03:14;;;;;;;;;;;;;;;9.03;98.51;102165.28;5110530;28;20256;-77
2024/01/30 10:05:40;;;;;;;;;;;;;;;9.04;98.52;102164.31;5102941;28;19920;-77
2024/01/30 10:08:05;;;;;;;;;;;;;;;9.04;98.85;102153.56;5107637;28;20492;-77
2024/01/30 10:10:31;;;;;;;;;;;;;;;9.07;97.88;102168.50;5114459;28;20014;-77
2024/01/30 10:12:56;;;;;;;;;;;;;;;9.03;98.60;102167.13;5113468;28;19920;-77
2024/01/30 10:15:21;;;;;;;;;;;;;;;9.02;98.89;102160.06;5106304;28;19920;-77
2024/01/30 10:17:47;;;;;;;;;;;;;;;9.04;98.79;102171.50;5102712;28;19955;-76
2024/01/30 10:20:12;;;;;;;;;;;;;;;9.09;99.03;102153.09;5101651;28;19923;-77
2024/01/30 10:22:37;;;;;;;;;;;;;;;9.04;99.22;102153.56;5099675;28;19920;-77
2024/01/30 10:25:03;;;;;;;;;;;;;;;9.06;99.52;102150.69;5102817;28;19986;-76
2024/01/30 10:27:29;;;;;;;;;;;;;;;9.07;99.84;102168.50;5075471;28;19948;-77
2024/01/30 10:29:54;;;;;;;;;;;;;;;9.15;99.87;102157.84;5112117;28;20402;-77
2024/01/30 10:32:19;;;;;;;;;;;;;;;9.16;99.67;102172.97;5113201;28;19931;-77
2024/01/30 10:34:51;;;;;;;;;;;;;;;9.27;99.18;102169.16;5104850;28;19923;-76
2024/01/30 10:37:17;;;;;;;;;;;;;;;9.33;98.83;102171.25;5083524;28;19967;-76
2024/01/30 10:39:42;;;;;;;;;;;;;;;9.34;99.03;102166.72;5090877;28;19965;-76
2024/01/30 10:42:15;;;;;;;;;;;;;;;9.46;98.76;102167.28;5094679;28;19920;-77
2024/01/30 10:44:44;;;;;;;;;;;;;;;9.46;98.31;102167.28;5107780;28;19927;-77
2024/01/30 10:47:12;;;;;;;;;;;;;;;9.61;97.39;102172.94;5112850;28;19936;-77
2024/01/30 10:49:37;;;;;;;;;;;;;;;9.66;97.24;102171.47;5105079;28;19920;-77
2024/01/30 10:52:04;;;;;;;;;;;;;;;9.49;98.30;102177.75;5078794;28;20015;-76
2024/01/30 10:54:29;;;;;;;;;;;;;;;9.55;98.11;102172.56;5081901;28;20295;-77
2024/01/30 10:56:54;;;;;;;;;;;;;;;9.47;98.71;102175.22;5108787;28;20442;-77
2024/01/30 10:59:19;;;;;;;;;;;;;;;9.45;98.94;102163.78;5093957;28;20002;-77
2024/01/30 11:01:44;;;;;;;;;;;;;;;9.40;99.31;102171.47;5082437;28;20074;-77
2024/01/30 11:04:10;;;;;;;;;;;;;;;9.40;99.86;102175.00;5090775;28;20010;-77
2024/01/30 11:06:40;;;;;;;;;;;;;;;9.34;100.00;102169.41;5104089;28;19920;-76
2024/01/30 11:09:09;;;;;;;;;;;;;;;9.39;100.00;102175.16;5110661;28;19928;-76
2024/01/30 11:11:50;;;;;;;;;;;;;;;9.36;100.00;102172.75;5086262;28;19923;-76
2024/01/30 11:14:16;;;;;;;;;;;;;;;9.36;100.00;102179.00;5098916;28;19924;-76
2024/01/30 11:16:41;;;;;;;;;;;;;;;9.41;100.00;102167.78;5100843;28;20295;-76
2024/01/30 11:19:10;;;;;;;;;;;;;;;9.39;100.00;102170.63;5100987;28;19927;-76
2024/01/30 11:21:40;;;;;;;;;;;;;;;9.46;100.00;102170.84;5090655;28;20025;-76
2024/01/30 11:24:05;;;;;;;;;;;;;;;9.45;100.00;102179.91;5108291;28;19927;-76
2024/01/30 11:26:30;;;;;;;;;;;;;;;9.45;100.00;102174.53;5083431;28;19924;-76
2024/01/30 11:28:56;;;;;;;;;;;;;;;9.46;100.00;102183.41;5095017;28;20340;-76
2024/01/30 11:31:21;;;;;;;;;;;;;;;9.52;100.00;102189.03;5106366;28;20296;-76
2024/01/30 11:33:46;;;;;;;;;;;;;;;9.48;100.00;102171.53;5109076;28;19973;-76
2024/01/30 11:36:12;;;;;;;;;;;;;;;9.55;100.00;102169.88;5093137;28;20279;-76
2024/01/30 11:38:37;;;;;;;;;;;;;;;9.56;100.00;102178.81;5086673;28;20003;-76
2024/01/30 11:41:02;;;;;;;;;;;;;;;9.40;100.00;102187.59;5103099;28;19924;-76
2024/01/30 11:43:28;;;;;;;;;;;;;;;9.55;100.00;102186.00;5103133;28;20447;-76
2024/01/30 11:45:53;;;;;;;;;;;;;;;9.61;100.00;102173.81;5111656;28;19927;-76
2024/01/30 11:48:18;;;;;;;;;;;;;;;9.66;100.00;102181.41;5108297;28;19920;-76
2024/01/30 11:50:46;;;;;;;;;;;;;;;9.78;100.00;102165.84;5091203;28;20005;-77
2024/01/30 11:53:12;;;;;;;;;;;;;;;9.82;100.00;102176.13;5101952;28;20321;-77
2024/01/30 11:55:37;;;;;;;;;;;;;;;9.83;100.00;102177.81;5112163;28;19930;-77
2024/01/30 11:58:04;;;;;;;;;;;;;;;9.90;100.00;102172.63;5111077;28;19919;-77
2024/01/30 12:00:30;;;;;;;;;;;;;;;9.96;100.00;102165.75;5100972;28;19934;-77
2024/01/30 12:02:56;;;;;;;;;;;;;;;10.01;100.00;102169.66;5099418;28;20452;-77
2024/01/30 12:05:24;;;;;;;;;;;;;;;10.08;100.00;102175.22;5101715;28;20240;-77
2024/01/30 12:07:49;;;;;;;;;;;;;;;10.10;100.00;102178.59;5082736;28;19998;-77
2024/01/30 12:10:15;;;;;;;;;;;;;;;10.10;100.00;102164.31;5109021;28;20010;-77
2024/01/30 12:12:45;;;;;;;;;;;;;;;10.12;100.00;102157.75;5092861;28;20009;-77
2024/01/30 12:15:12;;;;;;;;;;;;;;;10.23;100.00;102159.31;5080249;28;20448;-77
2024/01/30 12:17:37;;;;;;;;;;;;;;;10.25;100.00;102164.53;5103806;28;19963;-76
2024/01/30 12:20:12;;;;;;;;;;;;;;;10.22;99.16;102171.09;5102250;28;20045;-77
2024/01/30 12:22:40;;;;;;;;;;;;;;;10.31;98.88;102174.66;5109019;28;19920;-77
2024/01/30 12:25:09;;;;;;;;;;;;;;;10.09;99.51;102174.22;5111821;28;19923;-77
2024/01/30 12:27:34;;;;;;;;;;;;;;;10.32;98.67;102171.78;5111340;28;19923;-77
2024/01/30 12:29:59;;;;;;;;;;;;;;;10.26;98.10;102166.22;5100847;28;20337;-77